createdAt,value
2022-09-23T00:01:48.917Z,82.22
2022-09-23T00:04:12.474Z,83.32
2022-09-23T00:06:36.107Z,82.27
2022-09-23T00:08:59.672Z,82.74
2022-09-23T00:11:27.640Z,82.56
2022-09-23T00:13:54.700Z,82.47
2022-09-23T00:16:22.940Z,83.01
2022-09-23T00:18:46.571Z,82.32
2022-09-23T00:21:12.998Z,82.62
2022-09-23T00:23:36.560Z,84.08
2022-09-23T00:26:01.852Z,82.42
2022-09-23T00:28:26.803Z,82.05
2022-09-23T00:30:50.440Z,83.01
2022-09-23T00:33:14.030Z,84.08
2022-09-23T00:35:38.723Z,83.02
2022-09-23T00:38:02.270Z,82.87
2022-09-23T00:40:26.189Z,84.15
2022-09-23T00:42:52.078Z,83.00
2022-09-23T00:45:18.135Z,83.87
2022-09-23T00:47:48.227Z,82.44
2022-09-23T00:50:22.650Z,82.25
2022-09-23T00:52:46.971Z,82.42
2022-09-23T00:55:17.902Z,82.23
2022-09-23T00:57:43.523Z,82.28
2022-09-23T01:00:12.849Z,83.33
2022-09-23T01:02:39.534Z,83.13
2022-09-23T01:05:05.593Z,83.43
2022-09-23T01:07:30.119Z,82.38
2022-09-23T01:09:53.702Z,83.33
2022-09-23T01:12:36.286Z,82.68
2022-09-23T01:15:14.404Z,82.32
2022-09-23T01:17:48.570Z,82.81
2022-09-23T01:20:32.961Z,82.98
2022-09-23T01:23:14.723Z,81.72
2022-09-23T01:26:26.394Z,83.39
2022-09-23T01:29:18.934Z,82.16
2022-09-23T01:31:50.102Z,82.12
2022-09-23T01:34:24.255Z,82.34
2022-09-23T01:36:54.430Z,81.88
2022-09-23T01:39:25.135Z,82.41
2022-09-23T01:41:57.079Z,82.79
2022-09-23T01:44:26.928Z,82.30
2022-09-23T01:46:56.225Z,82.60
2022-09-23T01:49:26.211Z,82.21
2022-09-23T01:51:55.541Z,82.53
2022-09-23T01:54:25.518Z,82.86
2022-09-23T01:56:54.216Z,82.54
2022-09-23T01:59:23.506Z,82.67
2022-09-23T02:01:55.493Z,83.44
2022-09-23T02:04:26.053Z,83.57
2022-09-23T02:06:55.670Z,82.51
2022-09-23T02:09:25.878Z,84.22
2022-09-23T02:11:52.524Z,83.69
2022-09-23T02:14:22.719Z,83.63
2022-09-23T02:16:49.441Z,82.71
2022-09-23T02:19:19.402Z,84.27
2022-09-23T02:21:48.245Z,84.72
2022-09-23T02:24:19.110Z,83.32
2022-09-23T02:26:52.534Z,84.21
2022-09-23T02:29:23.692Z,84.67
2022-09-23T02:31:57.384Z,82.92
2022-09-23T02:34:35.897Z,82.57
2022-09-23T02:37:12.990Z,83.59
2022-09-23T02:39:46.680Z,82.51
2022-09-23T02:42:16.131Z,83.84
2022-09-23T02:44:40.656Z,82.95
2022-09-23T02:47:04.468Z,83.09
2022-09-23T02:49:32.360Z,83.79
2022-09-23T02:51:56.548Z,83.24
2022-09-23T02:54:22.420Z,84.07
2022-09-23T02:56:47.918Z,83.88
2022-09-23T02:59:12.967Z,85.16
2022-09-23T03:01:46.663Z,83.38
2022-09-23T03:04:20.235Z,82.41
2022-09-23T03:07:00.196Z,84.01
2022-09-23T03:09:31.502Z,82.76
2022-09-23T03:12:06.767Z,82.85
2022-09-23T03:14:43.113Z,82.80
2022-09-23T03:17:12.779Z,83.07
2022-09-23T03:19:44.582Z,83.00
2022-09-23T03:22:13.403Z,82.63
2022-09-23T03:24:39.542Z,83.10
2022-09-23T03:27:09.918Z,82.21
2022-09-23T03:29:37.438Z,82.73
2022-09-23T03:32:01.356Z,83.71
2022-09-23T03:34:30.566Z,83.83
2022-09-23T03:37:01.258Z,83.64
2022-09-23T03:39:35.431Z,83.12
2022-09-23T03:42:06.340Z,84.26
2022-09-23T03:44:31.239Z,83.44
2022-09-23T03:46:55.151Z,83.18
2022-09-23T03:49:20.886Z,85.28
2022-09-23T03:51:44.873Z,84.87
2022-09-23T03:54:08.638Z,83.62
2022-09-23T03:56:33.595Z,83.53
2022-09-23T03:58:57.211Z,83.39
2022-09-23T04:01:21.031Z,83.60
2022-09-23T04:03:44.606Z,82.90
2022-09-23T04:06:08.541Z,83.76
2022-09-23T04:08:32.094Z,82.86
2022-09-23T04:11:01.696Z,82.84
2022-09-23T04:13:26.603Z,82.93
2022-09-23T04:15:51.871Z,82.69
2022-09-23T04:18:15.442Z,82.48
2022-09-23T04:20:40.886Z,84.93
2022-09-23T04:23:04.635Z,83.60
2022-09-23T04:25:28.170Z,82.72
2022-09-23T04:27:51.757Z,83.59
2022-09-23T04:30:18.719Z,83.52
2022-09-23T04:32:42.313Z,83.74
2022-09-23T04:35:07.869Z,83.17
2022-09-23T04:37:31.464Z,83.34
2022-09-23T04:39:56.555Z,83.14
2022-09-23T04:42:20.098Z,82.47
2022-09-23T04:44:43.624Z,82.97
2022-09-23T04:47:08.896Z,83.01
2022-09-23T04:49:33.340Z,82.23
2022-09-23T04:51:56.927Z,83.10
2022-09-23T04:54:20.443Z,83.46
2022-09-23T04:56:44.294Z,82.67
2022-09-23T04:59:07.997Z,82.66
2022-09-23T05:01:34.552Z,83.72
2022-09-23T05:04:02.647Z,83.87
2022-09-23T05:06:26.735Z,83.15
2022-09-23T05:08:53.206Z,83.46
2022-09-23T05:11:17.958Z,82.90
2022-09-23T05:13:41.498Z,83.16
2022-09-23T05:16:08.282Z,82.37
2022-09-23T05:18:33.181Z,82.36
2022-09-23T05:20:58.268Z,83.88
2022-09-23T05:23:22.289Z,83.95
2022-09-23T05:25:46.319Z,83.07
2022-09-23T05:28:09.838Z,83.65
2022-09-23T05:30:33.884Z,84.47
2022-09-23T05:32:57.408Z,84.92
2022-09-23T05:35:21.000Z,84.32
2022-09-23T05:37:45.907Z,84.37
2022-09-23T05:40:10.688Z,85.11
2022-09-23T05:42:34.942Z,84.76
2022-09-23T05:44:58.521Z,85.71
2022-09-23T05:47:22.119Z,86.21
2022-09-23T05:49:59.071Z,85.79
2022-09-23T05:52:23.944Z,85.29
2022-09-23T05:54:49.975Z,85.64
2022-09-23T05:57:13.574Z,86.72
2022-09-23T05:59:38.215Z,87.17
2022-09-23T06:02:01.910Z,86.40
2022-09-23T06:04:25.491Z,85.24
2022-09-23T06:06:49.075Z,84.61
2022-09-23T06:09:15.280Z,85.35
2022-09-23T06:11:40.532Z,84.16
2022-09-23T06:14:04.837Z,84.52
2022-09-23T06:16:30.247Z,84.93
2022-09-23T06:18:53.852Z,84.56
2022-09-23T06:21:18.679Z,84.74
2022-09-23T06:23:42.571Z,85.55
2022-09-23T06:26:08.690Z,84.68
2022-09-23T06:28:35.590Z,85.60
2022-09-23T06:30:59.862Z,83.71
2022-09-23T06:33:34.316Z,83.13
2022-09-23T06:36:02.655Z,79.79
2022-09-23T06:38:26.572Z,78.39
2022-09-23T06:40:51.614Z,75.12
2022-09-23T06:43:15.161Z,73.69
2022-09-23T06:45:40.128Z,72.35
2022-09-23T06:48:06.163Z,72.70
2022-09-23T06:50:30.981Z,72.11
2022-09-23T06:52:56.359Z,72.50
2022-09-23T06:55:20.003Z,72.50
2022-09-23T06:57:43.562Z,71.61
2022-09-23T07:00:09.006Z,73.16
2022-09-23T07:02:33.992Z,70.79
2022-09-23T07:04:57.743Z,70.50
2022-09-23T07:07:21.288Z,72.65
2022-09-23T07:09:44.926Z,72.56
2022-09-23T07:12:09.082Z,73.26
2022-09-23T07:14:32.628Z,71.92
2022-09-23T07:16:56.135Z,71.23
2022-09-23T07:19:21.119Z,71.26
2022-09-23T07:21:44.611Z,73.72
2022-09-23T07:24:08.750Z,73.32
2022-09-23T07:26:34.176Z,72.76
2022-09-23T07:29:04.878Z,74.57
2022-09-23T07:31:38.467Z,72.09
2022-09-23T07:34:03.586Z,72.23
2022-09-23T07:36:31.240Z,70.72
2022-09-23T07:38:55.535Z,69.94
2022-09-23T07:41:20.382Z,72.54
2022-09-23T07:43:44.197Z,72.96
2022-09-23T07:46:11.128Z,73.37
2022-09-23T07:48:36.003Z,74.20
2022-09-23T07:51:00.915Z,72.89
2022-09-23T07:53:25.967Z,70.83
2022-09-23T07:55:54.884Z,69.35
2022-09-23T07:58:18.472Z,70.87
2022-09-23T08:00:41.994Z,69.86
2022-09-23T08:03:05.646Z,67.13
2022-09-23T08:05:29.184Z,67.21
2022-09-23T08:07:53.005Z,68.03
2022-09-23T08:10:19.138Z,67.13
2022-09-23T08:12:42.796Z,68.21
2022-09-23T08:15:07.742Z,65.80
2022-09-23T08:17:31.415Z,64.96
2022-09-23T08:19:54.910Z,67.01
2022-09-23T08:22:19.898Z,64.12
2022-09-23T08:24:43.428Z,64.27
2022-09-23T08:27:08.436Z,62.71
2022-09-23T08:29:31.986Z,62.72
2022-09-23T08:31:56.032Z,62.66
2022-09-23T08:34:21.345Z,62.44
2022-09-23T08:36:45.032Z,62.99
2022-09-23T08:39:08.620Z,60.35
2022-09-23T08:41:41.879Z,60.82
2022-09-23T08:44:16.514Z,60.01
2022-09-23T08:46:48.016Z,59.48
2022-09-23T08:49:18.431Z,59.53
2022-09-23T08:51:47.276Z,59.22
2022-09-23T08:54:12.347Z,58.69
2022-09-23T08:56:38.822Z,58.90
2022-09-23T08:59:10.644Z,58.28
2022-09-23T09:01:41.278Z,58.18
2022-09-23T09:04:19.119Z,58.26
2022-09-23T09:06:53.690Z,56.25
2022-09-23T09:09:27.310Z,57.60
2022-09-23T09:11:56.571Z,56.33
2022-09-23T09:14:27.565Z,54.98
2022-09-23T09:17:00.917Z,57.32
2022-09-23T09:19:48.407Z,54.71
2022-09-23T09:22:42.547Z,51.56
2022-09-23T09:25:23.854Z,51.96
2022-09-23T09:27:48.859Z,51.18
2022-09-23T09:30:25.002Z,50.73
2022-09-23T09:32:56.819Z,51.15
2022-09-23T09:35:29.152Z,51.80
2022-09-23T09:37:53.511Z,49.64
2022-09-23T09:40:20.145Z,50.08
2022-09-23T09:42:48.968Z,48.74
2022-09-23T09:45:24.211Z,49.53
2022-09-23T09:47:56.729Z,46.29
2022-09-23T09:50:47.162Z,46.83
2022-09-23T09:53:27.683Z,43.63
2022-09-23T09:56:04.930Z,45.17
2022-09-23T09:58:35.420Z,45.41
2022-09-23T10:00:59.051Z,44.60
2022-09-23T10:03:34.580Z,44.99
2022-09-23T10:05:59.816Z,44.02
2022-09-23T10:08:29.344Z,41.41
2022-09-23T10:10:54.905Z,46.36
2022-09-23T10:13:23.877Z,43.38
2022-09-23T10:15:47.473Z,43.47
2022-09-23T10:18:20.931Z,41.24
2022-09-23T10:20:44.636Z,42.73
2022-09-23T10:23:16.696Z,43.89
2022-09-23T10:25:41.594Z,43.97
2022-09-23T10:28:34.309Z,44.36
2022-09-23T10:31:08.686Z,43.31
2022-09-23T10:33:33.494Z,41.92
2022-09-23T10:35:59.091Z,46.30
2022-09-23T10:38:24.270Z,46.86
2022-09-23T10:41:05.378Z,46.02
2022-09-23T10:43:52.453Z,45.68
2022-09-23T10:46:39.787Z,42.35
2022-09-23T10:49:51.222Z,41.46
2022-09-23T10:52:39.815Z,44.10
2022-09-23T10:55:23.073Z,42.11
2022-09-23T10:58:10.405Z,43.13
2022-09-23T11:00:43.528Z,45.32
2022-09-23T11:03:50.718Z,40.30
2022-09-23T11:06:25.956Z,41.19
2022-09-23T11:09:09.543Z,40.42
2022-09-23T11:11:49.932Z,42.37
2022-09-23T11:14:38.832Z,42.11
2022-09-23T11:17:22.151Z,42.35
2022-09-23T11:20:03.713Z,43.96
2022-09-23T11:22:45.704Z,43.33
2022-09-23T11:25:41.431Z,42.97
2022-09-23T11:28:41.222Z,43.01
2022-09-23T11:31:19.188Z,43.78
2022-09-23T11:33:56.559Z,41.49
2022-09-23T11:36:26.992Z,40.20
2022-09-23T11:38:53.791Z,41.22
2022-09-23T11:41:23.675Z,45.78
2022-09-23T11:43:52.593Z,45.11
2022-09-23T11:46:28.436Z,41.85
2022-09-23T11:48:59.063Z,45.12
2022-09-23T11:51:31.544Z,41.30
2022-09-23T11:54:01.915Z,41.14
2022-09-23T11:56:35.944Z,42.58
2022-09-23T11:59:08.634Z,42.53
2022-09-23T12:01:38.552Z,40.35
2022-09-23T12:04:18.480Z,39.42
2022-09-23T12:06:47.351Z,43.50
2022-09-23T12:09:41.035Z,37.95
2022-09-23T12:12:15.169Z,40.65
2022-09-23T12:14:53.843Z,41.48
2022-09-23T12:17:35.028Z,40.42
2022-09-23T12:20:28.642Z,38.41
2022-09-23T12:23:09.730Z,36.99
2022-09-23T12:25:47.026Z,38.40
2022-09-23T12:28:18.225Z,44.99
2022-09-23T12:30:44.554Z,38.05
2022-09-23T12:33:12.278Z,42.47
2022-09-23T12:35:42.423Z,38.57
2022-09-23T12:38:15.439Z,36.31
2022-09-23T12:40:43.985Z,44.06
2022-09-23T12:43:07.721Z,37.52
2022-09-23T12:45:42.469Z,37.52
2022-09-23T12:48:28.105Z,38.43
2022-09-23T12:50:59.620Z,42.60
2022-09-23T12:54:00.099Z,40.00
2022-09-23T12:56:46.878Z,42.99
2022-09-23T12:59:26.343Z,37.03
2022-09-23T13:01:51.522Z,37.04
2022-09-23T13:05:02.470Z,36.41
2022-09-23T13:07:30.056Z,38.31
2022-09-23T13:10:00.943Z,36.45
2022-09-23T13:12:32.227Z,37.66
2022-09-23T13:15:00.717Z,39.29
2022-09-23T13:17:32.511Z,40.70
2022-09-23T13:20:06.371Z,39.45
2022-09-23T13:23:07.110Z,39.22
2022-09-23T13:25:33.479Z,39.64
2022-09-23T13:28:00.355Z,41.95
2022-09-23T13:30:26.763Z,42.76
2022-09-23T13:33:04.358Z,42.83
2022-09-23T13:35:35.274Z,36.76
2022-09-23T13:37:59.004Z,37.82
2022-09-23T13:40:27.174Z,39.75
2022-09-23T13:42:56.983Z,43.89
2022-09-23T13:45:24.024Z,36.85
2022-09-23T13:47:51.336Z,37.88
2022-09-23T13:50:21.256Z,43.04
2022-09-23T13:52:44.947Z,37.81
2022-09-23T13:55:31.051Z,39.33
2022-09-23T13:58:00.740Z,39.67
2022-09-23T14:00:25.778Z,41.64
2022-09-23T14:02:49.338Z,45.16
2022-09-23T14:05:23.432Z,36.82
2022-09-23T14:07:47.023Z,39.50
2022-09-23T14:10:21.170Z,38.33
2022-09-23T14:12:45.083Z,43.69
2022-09-23T14:15:15.747Z,42.93
2022-09-23T14:17:39.331Z,41.88
2022-09-23T14:20:03.560Z,40.18
2022-09-23T14:22:30.466Z,40.78
2022-09-23T14:24:55.825Z,40.91
2022-09-23T14:27:26.415Z,38.78
2022-09-23T14:29:50.967Z,41.36
2022-09-23T14:32:18.514Z,40.23
2022-09-23T14:34:48.237Z,40.76
2022-09-23T14:37:49.015Z,39.82
2022-09-23T14:40:17.229Z,38.37
2022-09-23T14:42:43.679Z,40.66
2022-09-23T14:45:10.904Z,43.43
2022-09-23T14:47:37.055Z,41.48
2022-09-23T14:50:14.492Z,39.37
2022-09-23T14:52:39.528Z,39.77
2022-09-23T14:55:03.239Z,41.75
2022-09-23T14:57:30.396Z,45.53
2022-09-23T14:59:56.859Z,44.64
2022-09-23T15:02:36.332Z,42.19
2022-09-23T15:05:15.849Z,42.22
2022-09-23T15:07:40.787Z,45.11
2022-09-23T15:10:05.026Z,41.40
2022-09-23T15:12:28.754Z,43.34
2022-09-23T15:14:56.725Z,45.02
2022-09-23T15:17:33.037Z,46.21
2022-09-23T15:19:59.909Z,48.67
2022-09-23T15:22:24.389Z,48.57
2022-09-23T15:24:49.843Z,48.75
2022-09-23T15:27:37.272Z,48.55
2022-09-23T15:30:20.429Z,49.25
2022-09-23T15:32:44.535Z,49.89
2022-09-23T15:35:09.784Z,50.07
2022-09-23T15:37:36.337Z,50.66
2022-09-23T15:40:01.575Z,51.05
2022-09-23T15:42:25.271Z,51.42
2022-09-23T15:44:50.594Z,51.60
2022-09-23T15:47:19.002Z,53.13
2022-09-23T15:49:42.560Z,53.63
2022-09-23T15:52:09.750Z,54.09
2022-09-23T15:54:34.007Z,54.41
2022-09-23T15:57:01.081Z,54.66
2022-09-23T15:59:25.060Z,54.66
2022-09-23T16:01:49.163Z,55.19
2022-09-23T16:04:14.314Z,55.52
2022-09-23T16:06:37.929Z,55.89
2022-09-23T16:09:01.478Z,56.63
2022-09-23T16:11:29.836Z,56.86
2022-09-23T16:13:54.930Z,56.81
2022-09-23T16:16:21.111Z,57.99
2022-09-23T16:18:45.015Z,58.29
2022-09-23T16:21:10.901Z,58.73
2022-09-23T16:23:38.886Z,59.13
2022-09-23T16:26:06.760Z,59.58
2022-09-23T16:28:30.335Z,59.48
2022-09-23T16:30:55.276Z,60.08
2022-09-23T16:33:19.429Z,60.63
2022-09-23T16:35:43.108Z,60.72
2022-09-23T16:38:07.834Z,60.89
2022-09-23T16:40:32.694Z,61.28
2022-09-23T16:42:58.420Z,60.64
2022-09-23T16:45:24.112Z,61.59
2022-09-23T16:47:51.392Z,62.11
2022-09-23T16:50:17.232Z,62.18
2022-09-23T16:52:41.813Z,62.04
2022-09-23T16:55:08.169Z,62.25
2022-09-23T16:57:31.711Z,62.63
2022-09-23T17:00:12.375Z,63.01
2022-09-23T17:02:53.200Z,63.51
2022-09-23T17:05:19.375Z,63.43
2022-09-23T17:07:42.927Z,63.69
2022-09-23T17:10:07.604Z,63.97
2022-09-23T17:12:35.222Z,64.62
2022-09-23T17:14:59.191Z,65.02
2022-09-23T17:17:22.807Z,65.18
2022-09-23T17:19:46.367Z,65.18
2022-09-23T17:22:11.279Z,65.27
2022-09-23T17:24:34.857Z,65.81
2022-09-23T17:26:58.351Z,66.06
2022-09-23T17:29:22.076Z,66.05
2022-09-23T17:31:46.773Z,66.52
2022-09-23T17:34:10.540Z,66.60
2022-09-23T17:36:34.130Z,66.28
2022-09-23T17:38:59.122Z,66.60
2022-09-23T17:41:22.943Z,66.65
2022-09-23T17:43:46.753Z,67.49
2022-09-23T17:46:16.303Z,67.34
2022-09-23T17:48:43.303Z,68.05
2022-09-23T17:51:11.058Z,67.92
2022-09-23T17:53:38.597Z,68.37
2022-09-23T17:56:06.319Z,68.87
2022-09-23T17:58:31.905Z,69.12
2022-09-23T18:00:56.690Z,69.59
2022-09-23T18:03:20.415Z,69.78
2022-09-23T18:05:43.939Z,70.25
2022-09-23T18:08:07.508Z,70.01
2022-09-23T18:10:32.438Z,70.58
2022-09-23T18:12:57.384Z,71.09
2022-09-23T18:15:21.335Z,71.70
2022-09-23T18:17:44.899Z,71.55
2022-09-23T18:20:10.620Z,72.18
2022-09-23T18:22:34.196Z,72.35
2022-09-23T18:24:57.679Z,72.96
2022-09-23T18:27:21.220Z,73.32
2022-09-23T18:29:46.201Z,74.38
2022-09-23T18:32:13.970Z,74.05
2022-09-23T18:34:37.936Z,74.19
2022-09-23T18:37:01.564Z,74.20
2022-09-23T18:39:25.111Z,74.80
2022-09-23T18:41:49.575Z,74.33
2022-09-23T18:44:13.139Z,74.17
2022-09-23T18:46:38.461Z,73.74
2022-09-23T18:49:19.461Z,74.48
2022-09-23T18:51:50.457Z,73.65
2022-09-23T18:54:14.039Z,74.38
2022-09-23T18:56:42.493Z,74.86
2022-09-23T18:59:08.561Z,74.21
2022-09-23T19:01:32.163Z,74.50
2022-09-23T19:03:58.442Z,74.45
2022-09-23T19:06:21.966Z,74.57
2022-09-23T19:08:46.819Z,74.66
2022-09-23T19:11:13.878Z,74.93
2022-09-23T19:13:37.467Z,74.27
2022-09-23T19:16:03.800Z,74.71
2022-09-23T19:18:28.867Z,74.57
2022-09-23T19:20:55.134Z,74.63
2022-09-23T19:23:18.760Z,74.48
2022-09-23T19:25:42.635Z,75.08
2022-09-23T19:28:08.319Z,75.21
2022-09-23T19:30:31.855Z,75.61
2022-09-23T19:32:55.374Z,74.82
2022-09-23T19:35:18.883Z,75.49
2022-09-23T19:37:46.204Z,75.13
2022-09-23T19:40:11.672Z,75.93
2022-09-23T19:42:35.339Z,75.89
2022-09-23T19:44:58.858Z,75.86
2022-09-23T19:47:22.392Z,76.27
2022-09-23T19:49:46.088Z,76.43
2022-09-23T19:52:09.689Z,76.22
2022-09-23T19:54:34.592Z,76.68
2022-09-23T19:56:58.159Z,77.04
2022-09-23T19:59:21.875Z,76.47
2022-09-23T20:01:45.477Z,76.30
2022-09-23T20:04:09.116Z,76.82
2022-09-23T20:06:35.100Z,76.68
2022-09-23T20:09:00.901Z,76.48
2022-09-23T20:11:28.599Z,76.46
2022-09-23T20:13:58.515Z,77.08
2022-09-23T20:16:22.642Z,77.21
2022-09-23T20:18:47.080Z,76.48
2022-09-23T20:21:13.644Z,77.49
2022-09-23T20:23:37.203Z,77.21
2022-09-23T20:26:20.278Z,77.35
2022-09-23T20:28:45.271Z,77.12
2022-09-23T20:31:08.832Z,77.34
2022-09-23T20:33:32.537Z,77.49
2022-09-23T20:35:56.819Z,77.66
2022-09-23T20:38:20.436Z,78.12
2022-09-23T20:40:44.147Z,77.83
2022-09-23T20:43:07.815Z,78.41
2022-09-23T20:45:32.835Z,77.87
2022-09-23T20:47:59.379Z,78.30
2022-09-23T20:50:22.885Z,78.33
2022-09-23T20:52:46.423Z,78.89
2022-09-23T20:55:10.545Z,78.24
2022-09-23T20:57:34.092Z,77.96
2022-09-23T20:59:57.597Z,77.86
2022-09-23T21:02:22.859Z,79.24
2022-09-23T21:04:46.406Z,78.08
2022-09-23T21:07:11.139Z,78.57
2022-09-23T21:09:34.752Z,78.96
2022-09-23T21:11:58.683Z,79.85
2022-09-23T21:14:22.468Z,80.70
2022-09-23T21:16:47.169Z,79.78
2022-09-23T21:19:12.089Z,78.94
2022-09-23T21:21:36.054Z,78.59
2022-09-23T21:24:23.917Z,79.37
2022-09-23T21:26:47.330Z,80.14
2022-09-23T21:29:11.126Z,81.14
2022-09-23T21:31:37.191Z,81.34
2022-09-23T21:34:03.200Z,80.17
2022-09-23T21:36:29.534Z,80.20
2022-09-23T21:38:53.867Z,80.13
2022-09-23T21:41:17.855Z,79.39
2022-09-23T21:43:41.685Z,81.72
2022-09-23T21:46:08.501Z,79.80
2022-09-23T21:48:33.612Z,80.30
2022-09-23T21:50:59.276Z,81.82
2022-09-23T21:53:24.849Z,79.40
2022-09-23T21:55:48.869Z,80.13
2022-09-23T21:58:12.421Z,79.65
2022-09-23T22:00:36.383Z,80.61
2022-09-23T22:02:59.905Z,81.00
2022-09-23T22:05:23.612Z,79.35
2022-09-23T22:07:47.150Z,80.94
2022-09-23T22:10:12.375Z,79.51
2022-09-23T22:12:36.255Z,81.16
2022-09-23T22:14:59.816Z,81.59
2022-09-23T22:17:23.740Z,80.28
2022-09-23T22:19:47.510Z,81.35
2022-09-23T22:22:13.717Z,80.03
2022-09-23T22:24:37.266Z,81.17
2022-09-23T22:27:02.201Z,79.90
2022-09-23T22:29:42.988Z,78.94
2022-09-23T22:32:29.278Z,79.99
2022-09-23T22:34:52.986Z,81.07
2022-09-23T22:37:20.096Z,79.57
2022-09-23T22:39:43.670Z,79.58
2022-09-23T22:42:08.608Z,80.17
2022-09-23T22:44:32.756Z,79.85
2022-09-23T22:46:56.434Z,80.31
2022-09-23T22:49:20.415Z,79.68
2022-09-23T22:51:44.465Z,80.51
2022-09-23T22:54:08.978Z,79.80
2022-09-23T22:56:32.617Z,80.02
2022-09-23T22:58:57.744Z,80.03
2022-09-23T23:01:21.323Z,81.29
2022-09-23T23:03:45.911Z,80.56
2022-09-23T23:06:11.220Z,80.83
2022-09-23T23:08:35.473Z,81.85
2022-09-23T23:11:03.146Z,80.66
2022-09-23T23:13:32.209Z,82.19
2022-09-23T23:15:58.879Z,81.86
2022-09-23T23:18:22.520Z,79.39
2022-09-23T23:20:46.204Z,79.76
2022-09-23T23:23:09.812Z,82.82
2022-09-23T23:25:33.601Z,79.83
2022-09-23T23:27:57.933Z,79.69
2022-09-23T23:30:21.773Z,81.03
2022-09-23T23:32:46.705Z,81.86
2022-09-23T23:35:10.795Z,81.23
2022-09-23T23:37:34.437Z,80.69
2022-09-23T23:39:57.971Z,80.16
2022-09-23T23:42:21.541Z,80.59
2022-09-23T23:44:45.092Z,81.04
2022-09-23T23:47:08.644Z,82.12
2022-09-23T23:49:33.535Z,81.04
2022-09-23T23:51:57.618Z,81.52
2022-09-23T23:54:21.181Z,82.25
2022-09-23T23:56:44.791Z,81.40
2022-09-23T23:59:08.351Z,82.50
